Time;durP1;ratioP1;P1;durP2;ratioP2;P2;SDS_P1;SDS_P2;PMS_P1;PMS_P2;Temp;Humidity;BMP_temperature;BMP_pressure;BME280_temperature;BME280_humidity;BME280_pressure;Samples;Min_cycle;Max_cycle;Signal;HPM_P1;HPM_P2
2023/06/11 00:00:29;;;;;;;6.22;3.10;;;;;;;19.22;58.55;100531.50;4973343;28;20394;-77
2023/06/11 00:02:56;;;;;;;7.30;3.30;;;;;;;19.15;59.10;100544.22;4973550;28;20784;-77
2023/06/11 00:05:23;;;;;;;6.60;3.23;;;;;;;18.91;59.44;100541.47;4973571;28;20418;-77
2023/06/11 00:07:51;;;;;;;9.30;3.45;;;;;;;18.77;59.96;100546.19;4956478;28;20872;-77
2023/06/11 00:10:17;;;;;;;8.77;3.28;;;;;;;18.76;60.05;100541.03;4973477;28;20406;-77
2023/06/11 00:12:45;;;;;;;5.95;3.10;;;;;;;18.77;60.03;100534.63;4973560;28;20824;-77
2023/06/11 00:15:11;;;;;;;6.80;3.25;;;;;;;18.59;60.38;100527.44;4973098;28;20391;-77
2023/06/11 00:17:37;;;;;;;6.78;3.13;;;;;;;18.46;60.68;100529.25;4973296;28;20458;-77
2023/06/11 00:20:09;;;;;;;6.43;3.20;;;;;;;18.46;61.08;100536.50;4973321;28;20388;-77
2023/06/11 00:22:35;;;;;;;6.15;2.80;;;;;;;18.47;60.96;100530.88;4973278;28;20380;-77
2023/06/11 00:25:01;;;;;;;6.85;3.05;;;;;;;18.45;61.13;100535.66;4973181;28;20895;-77
2023/06/11 00:27:26;;;;;;;7.80;3.10;;;;;;;18.45;61.12;100530.28;4973451;28;20486;-76
2023/06/11 00:29:53;;;;;;;5.35;2.80;;;;;;;18.55;60.96;100535.13;4972871;28;20419;-77
2023/06/11 00:32:19;;;;;;;7.47;3.15;;;;;;;18.54;60.84;100530.78;4972990;28;20930;-78
2023/06/11 00:34:44;;;;;;;5.97;3.13;;;;;;;18.52;60.87;100525.66;4973133;28;20376;-77
2023/06/11 00:37:11;;;;;;;8.13;3.00;;;;;;;18.66;60.36;100536.22;4972940;28;20384;-77
2023/06/11 00:39:36;;;;;;;6.20;3.22;;;;;;;18.76;60.06;100538.34;4973078;28;20390;-77
2023/06/11 00:42:02;;;;;;;8.73;2.95;;;;;;;18.79;59.88;100535.22;4956940;28;20395;-77
2023/06/11 00:44:29;;;;;;;6.03;2.93;;;;;;;18.82;59.77;100540.97;4971445;28;20914;-77
2023/06/11 00:46:57;;;;;;;7.32;3.53;;;;;;;18.73;59.96;100535.06;4972715;28;20452;-77
2023/06/11 00:49:24;;;;;;;8.45;3.40;;;;;;;18.68;60.23;100536.81;4955799;28;20475;-77
2023/06/11 00:51:50;;;;;;;6.22;2.90;;;;;;;18.63;60.48;100536.66;4972854;28;20371;-77
2023/06/11 00:54:19;;;;;;;5.55;3.13;;;;;;;18.60;60.72;100543.31;4972704;28;20387;-77
2023/06/11 00:56:45;;;;;;;6.22;3.30;;;;;;;18.65;60.72;100534.56;4982286;28;20870;-77
2023/06/11 00:59:13;;;;;;;7.13;3.28;;;;;;;18.76;60.40;100535.66;4995361;28;20386;-77
2023/06/11 01:02:12;;;;;;;8.52;3.55;;;;;;;18.87;59.92;100541.13;4996150;28;20382;-78
2023/06/11 01:04:39;;;;;;;5.70;3.00;;;;;;;18.91;59.65;100542.28;4979860;28;20401;-78
2023/06/11 01:07:07;;;;;;;10.02;3.85;;;;;;;18.95;59.86;100553.38;4994663;28;20390;-78
2023/06/11 01:09:33;;;;;;;7.00;3.50;;;;;;;18.91;59.84;100552.22;4994573;28;20468;-78
2023/06/11 01:12:02;;;;;;;5.03;2.90;;;;;;;18.90;60.09;100546.00;4993617;28;20373;-78
2023/06/11 01:14:28;;;;;;;6.83;3.23;;;;;;;18.96;59.70;100557.72;4994179;28;20487;-78
2023/06/11 01:17:04;;;;;;;7.70;3.30;;;;;;;19.03;59.20;100549.53;4994155;28;20389;-78
2023/06/11 01:20:12;;;;;;;6.55;3.22;;;;;;;19.02;59.32;100550.63;4977126;28;20385;-78
2023/06/11 01:23:16;;;;;;;7.57;3.10;;;;;;;19.07;59.19;100553.44;4993858;28;20515;-78
2023/06/11 01:26:10;;;;;;;6.32;3.22;;;;;;;19.02;59.56;100553.31;4991310;28;20712;-77
2023/06/11 01:28:38;;;;;;;7.80;3.80;;;;;;;18.95;59.80;100552.56;4993588;28;20866;-78
2023/06/11 01:31:11;;;;;;;7.55;3.40;;;;;;;18.92;60.03;100559.22;4989683;28;20748;-77
2023/06/11 01:33:36;;;;;;;7.07;3.58;;;;;;;18.87;59.89;100556.38;4979430;28;20398;-77
2023/06/11 01:36:05;;;;;;;5.47;3.20;;;;;;;18.92;59.83;100561.91;4982933;28;20408;-79
2023/06/11 01:38:41;;;;;;;6.35;3.53;;;;;;;19.02;59.59;100564.84;4990500;28;20473;-78
2023/06/11 01:41:11;;;;;;;7.13;3.13;;;;;;;19.07;59.37;100554.25;4989569;28;20386;-77
2023/06/11 01:43:37;;;;;;;5.97;3.25;;;;;;;18.94;59.92;100557.09;4988637;28;20390;-77
2023/06/11 01:46:03;;;;;;;6.40;3.50;;;;;;;18.85;60.29;100555.81;4988655;28;20397;-77
2023/06/11 01:48:29;;;;;;;7.90;3.53;;;;;;;18.87;60.24;100549.16;4991820;28;20413;-77
2023/06/11 01:50:54;;;;;;;7.63;3.57;;;;;;;18.92;59.81;100559.22;4991459;28;20430;-78
2023/06/11 01:53:20;;;;;;;10.90;3.45;;;;;;;18.91;59.90;100557.59;4992302;28;20382;-78
2023/06/11 01:55:46;;;;;;;7.20;3.83;;;;;;;18.82;60.52;100572.41;4991484;28;20385;-77
2023/06/11 01:58:12;;;;;;;8.55;3.30;;;;;;;18.77;60.72;100564.16;4975657;28;20426;-77
2023/06/11 02:00:37;;;;;;;6.72;3.47;;;;;;;18.68;60.80;100574.41;4972214;28;20408;-78
2023/06/11 02:03:05;;;;;;;8.77;3.80;;;;;;;18.71;60.25;100573.97;4971466;28;20372;-79
2023/06/11 02:05:30;;;;;;;8.75;4.03;;;;;;;18.79;60.38;100581.69;4955582;28;20427;-78
2023/06/11 02:07:56;;;;;;;7.93;3.70;;;;;;;18.72;60.27;100581.75;4956255;28;20486;-78
2023/06/11 02:10:21;;;;;;;9.32;3.40;;;;;;;18.63;60.55;100583.13;4973849;28;20375;-79
2023/06/11 02:12:47;;;;;;;8.53;3.73;;;;;;;18.45;61.01;100583.16;4972260;28;20388;-78
2023/06/11 02:15:13;;;;;;;8.02;3.58;;;;;;;18.45;60.96;100591.22;4974295;28;20702;-78
2023/06/11 02:17:38;;;;;;;8.00;3.40;;;;;;;18.54;60.56;100587.16;4977951;28;20466;-78
2023/06/11 02:20:08;;;;;;;11.50;3.72;;;;;;;18.68;60.11;100583.25;4975731;28;20450;-78
2023/06/11 02:22:34;;;;;;;7.50;3.50;;;;;;;18.81;59.47;100593.03;4977220;28;20399;-78
2023/06/11 02:25:00;;;;;;;8.00;3.50;;;;;;;18.83;59.34;100584.75;4976900;28;20407;-77
2023/06/11 02:27:25;;;;;;;9.18;3.70;;;;;;;18.73;59.73;100583.41;4976790;28;20391;-78
2023/06/11 02:29:51;;;;;;;8.70;3.20;;;;;;;18.72;59.58;100581.75;4977044;28;20454;-79
2023/06/11 02:32:16;;;;;;;8.90;3.53;;;;;;;18.78;59.55;100585.44;4976189;28;20713;-78
2023/06/11 02:34:42;;;;;;;10.13;3.70;;;;;;;18.69;59.80;100586.75;4977899;28;20398;-77
2023/06/11 02:37:08;;;;;;;8.60;3.80;;;;;;;18.79;59.41;100579.00;4975987;28;20418;-76
2023/06/11 02:39:33;;;;;;;6.32;3.58;;;;;;;18.82;59.42;100575.06;4980865;28;20779;-77
2023/06/11 02:41:59;;;;;;;7.97;4.00;;;;;;;18.80;59.23;100574.44;4962506;28;20395;-79
2023/06/11 02:44:25;;;;;;;6.18;3.63;;;;;;;18.81;59.05;100589.50;4978397;28;20411;-79
2023/06/11 02:46:50;;;;;;;8.57;3.47;;;;;;;18.81;59.07;100579.59;4977320;28;20388;-78
2023/06/11 02:49:16;;;;;;;9.27;3.53;;;;;;;18.91;58.71;100581.75;4976214;28;20388;-77
2023/06/11 02:51:41;;;;;;;8.63;3.60;;;;;;;18.96;58.85;100587.28;4975256;28;20402;-77
2023/06/11 02:54:07;;;;;;;9.45;3.83;;;;;;;19.00;58.68;100574.22;4989696;28;20467;-79
2023/06/11 02:56:32;;;;;;;8.80;3.73;;;;;;;19.00;58.74;100575.00;4989722;28;20412;-77
2023/06/11 02:58:58;;;;;;;8.00;3.72;;;;;;;18.91;59.20;100582.56;5017679;28;20404;-78
2023/06/11 03:01:24;;;;;;;10.07;4.37;;;;;;;18.97;59.06;100586.22;5018878;28;20394;-78
2023/06/11 03:03:49;;;;;;;9.05;3.95;;;;;;;19.01;58.92;100584.69;5015280;28;20595;-78
2023/06/11 03:06:15;;;;;;;6.30;3.60;;;;;;;19.08;58.72;100587.28;5015303;28;20507;-77
2023/06/11 03:08:40;;;;;;;8.73;4.27;;;;;;;19.02;59.06;100588.22;5013629;28;20453;-80
2023/06/11 03:11:05;;;;;;;8.83;3.80;;;;;;;18.93;59.38;100581.53;5014132;28;20388;-78
2023/06/11 03:13:31;;;;;;;10.73;4.30;;;;;;;19.05;59.26;100587.75;5014255;28;20889;-78
2023/06/11 03:15:56;;;;;;;8.97;3.87;;;;;;;19.25;59.08;100598.22;5013784;28;20392;-77
2023/06/11 03:18:22;;;;;;;9.30;4.07;;;;;;;19.37;58.69;100593.66;5005840;28;20394;-78
2023/06/11 03:20:47;;;;;;;18.80;4.70;;;;;;;19.29;59.00;100594.81;5005791;28;20399;-78
2023/06/11 03:23:14;;;;;;;7.37;3.80;;;;;;;19.34;59.05;100602.22;5014087;28;20869;-78
2023/06/11 03:25:40;;;;;;;9.23;3.65;;;;;;;19.40;59.37;100598.59;5014488;28;20410;-78
2023/06/11 03:28:05;;;;;;;11.25;3.80;;;;;;;19.55;59.09;100600.81;5014866;28;20468;-78
2023/06/11 03:30:31;;;;;;;7.53;3.43;;;;;;;19.67;59.00;100601.66;5014619;28;20368;-78
2023/06/11 03:32:56;;;;;;;9.90;4.10;;;;;;;19.59;59.12;100611.94;5014213;28;20399;-78
2023/06/11 03:35:22;;;;;;;7.28;3.75;;;;;;;19.44;59.62;100602.44;5013231;28;20423;-78
2023/06/11 03:37:47;;;;;;;7.10;3.70;;;;;;;19.59;59.55;100604.69;5013974;28;20438;-78
2023/06/11 03:40:13;;;;;;;10.70;3.90;;;;;;;19.73;59.32;100605.31;5013911;28;20872;-77
2023/06/11 03:42:38;;;;;;;7.70;3.87;;;;;;;19.95;59.03;100602.03;5013431;28;20387;-77
2023/06/11 03:45:04;;;;;;;8.30;3.87;;;;;;;19.99;58.80;100600.53;5013738;28;20404;-77
2023/06/11 03:47:30;;;;;;;9.97;3.60;;;;;;;20.12;58.59;100602.97;5013835;28;20391;-77
2023/06/11 03:49:55;;;;;;;11.95;4.25;;;;;;;20.22;58.32;100600.50;5014519;28;20778;-77
2023/06/11 03:52:21;;;;;;;15.50;4.50;;;;;;;20.34;58.07;100603.16;5014427;28;20386;-79
2023/06/11 03:54:46;;;;;;;10.13;5.20;;;;;;;20.46;58.10;100610.41;5013266;28;20383;-77
2023/06/11 03:57:12;;;;;;;9.32;3.90;;;;;;;20.54;57.97;100600.03;5014659;28;20562;-76
2023/06/11 03:59:38;;;;;;;9.40;3.45;;;;;;;20.70;57.65;100609.28;5013348;28;20387;-77
2023/06/11 04:02:04;;;;;;;8.65;3.83;;;;;;;20.66;57.51;100610.00;5011301;28;21258;-76
2023/06/11 04:04:29;;;;;;;6.53;3.50;;;;;;;20.61;57.60;100598.06;5012112;28;20404;-77
2023/06/11 04:06:55;;;;;;;9.10;4.15;;;;;;;20.55;57.84;100603.56;5010756;28;20376;-77
2023/06/11 04:09:20;;;;;;;8.63;4.00;;;;;;;20.68;57.28;100605.19;5011634;28;20460;-77
2023/06/11 04:11:46;;;;;;;8.13;3.80;;;;;;;20.88;57.28;100607.47;5013010;28;20733;-77
2023/06/11 04:14:11;;;;;;;9.82;4.10;;;;;;;21.10;56.62;100594.09;5013565;28;20463;-78
2023/06/11 04:16:37;;;;;;;14.23;4.50;;;;;;;21.20;56.26;100605.06;5014448;28;20776;-77
2023/06/11 04:19:02;;;;;;;9.60;3.80;;;;;;;21.14;55.87;100614.13;5013056;28;20541;-76
2023/06/11 04:21:29;;;;;;;9.63;4.00;;;;;;;21.02;56.07;100616.06;5011467;28;20380;-76
2023/06/11 04:23:55;;;;;;;9.45;4.28;;;;;;;21.14;55.62;100616.81;5012320;28;20914;-77
2023/06/11 04:26:20;;;;;;;7.85;3.60;;;;;;;21.21;55.30;100609.38;4995513;28;20388;-78
2023/06/11 04:28:48;;;;;;;7.77;4.10;;;;;;;21.22;55.24;100621.00;4995544;28;20376;-77
2023/06/11 04:31:14;;;;;;;8.43;3.88;;;;;;;21.17;55.12;100621.72;5012560;28;20716;-77
2023/06/11 04:33:40;;;;;;;7.93;4.00;;;;;;;21.30;55.09;100615.19;5012705;28;20384;-78
2023/06/11 04:36:08;;;;;;;9.02;4.60;;;;;;;21.35;54.96;100616.09;5013605;28;20718;-78
2023/06/11 04:38:38;;;;;;;9.82;4.40;;;;;;;21.35;54.31;100618.81;5015671;28;20465;-78
2023/06/11 04:41:11;;;;;;;10.95;4.80;;;;;;;21.26;54.69;100614.88;4996023;28;20478;-78
2023/06/11 04:43:37;;;;;;;10.30;4.70;;;;;;;21.29;54.94;100608.19;5013214;28;20435;-78
2023/06/11 04:46:03;;;;;;;8.82;3.92;;;;;;;21.49;54.49;100618.53;5013021;28;20866;-78
2023/06/11 04:48:34;;;;;;;9.32;3.92;;;;;;;21.85;54.20;100619.09;5012401;28;20373;-77
2023/06/11 04:51:00;;;;;;;8.70;3.97;;;;;;;22.09;53.74;100608.88;5012402;28;20380;-77
2023/06/11 04:53:27;;;;;;;7.22;3.70;;;;;;;22.23;52.93;100615.56;5006041;28;20713;-77
2023/06/11 04:55:55;;;;;;;9.25;4.10;;;;;;;22.32;52.93;100616.78;5003403;28;20475;-77
2023/06/11 04:58:30;;;;;;;8.05;3.80;;;;;;;22.12;52.73;100616.50;5002857;28;20562;-77
2023/06/11 05:00:57;;;;;;;9.25;4.25;;;;;;;22.18;52.96;100610.09;5005862;28;20400;-79
2023/06/11 05:03:29;;;;;;;9.00;3.95;;;;;;;22.36;52.67;100613.59;5004463;28;20478;-77
2023/06/11 05:05:54;;;;;;;9.90;4.40;;;;;;;22.28;52.31;100607.56;5010587;28;21044;-77
2023/06/11 05:08:24;;;;;;;9.50;4.10;;;;;;;22.22;52.61;100605.84;5007714;28;20717;-78
2023/06/11 05:10:53;;;;;;;12.68;4.38;;;;;;;22.30;52.64;100604.63;4991256;28;20400;-78
2023/06/11 05:13:24;;;;;;;7.93;4.60;;;;;;;22.37;52.41;100605.25;4993729;28;20407;-77
2023/06/11 05:15:59;;;;;;;11.63;4.07;;;;;;;22.38;52.30;100601.47;5010595;28;20379;-77
2023/06/11 05:18:25;;;;;;;8.93;4.47;;;;;;;22.46;52.39;100609.13;5011403;28;20380;-77
2023/06/11 05:20:51;;;;;;;7.57;4.28;;;;;;;22.33;52.44;100598.72;5011698;28;20411;-78
2023/06/11 05:23:17;;;;;;;5.80;3.95;;;;;;;22.37;52.54;100602.53;5012062;28;20419;-78
2023/06/11 05:25:46;;;;;;;5.82;3.72;;;;;;;22.44;52.54;100600.47;5012721;28;20404;-78
2023/06/11 05:28:13;;;;;;;9.80;4.38;;;;;;;22.57;52.29;100601.97;5012488;28;20388;-77
2023/06/11 05:30:45;;;;;;;9.90;4.13;;;;;;;22.67;52.12;100610.19;5012285;28;20387;-78
2023/06/11 05:33:11;;;;;;;7.43;4.00;;;;;;;22.72;52.24;100604.00;5018624;28;20549;-77
2023/06/11 05:35:37;;;;;;;7.90;4.40;;;;;;;23.04;51.90;100608.69;5018430;28;20507;-78
2023/06/11 05:38:09;;;;;;;8.20;4.57;;;;;;;23.28;51.65;100609.19;5021013;28;20753;-77
2023/06/11 05:40:36;;;;;;;7.25;4.72;;;;;;;23.32;51.73;100609.47;4997082;28;20389;-77
2023/06/11 05:43:06;;;;;;;6.32;4.53;;;;;;;23.37;51.27;100613.06;4993574;28;20386;-77
2023/06/11 05:45:32;;;;;;;7.57;4.82;;;;;;;23.48;51.26;100611.28;4979899;28;20397;-77
2023/06/11 05:47:58;;;;;;;9.52;5.35;;;;;;;23.60;50.95;100603.75;5011812;28;20927;-77
2023/06/11 05:50:25;;;;;;;9.07;4.80;;;;;;;23.64;50.70;100613.00;5011196;28;20474;-77
2023/06/11 05:52:50;;;;;;;9.83;4.63;;;;;;;23.60;50.61;100605.66;5012263;28;20380;-78
2023/06/11 05:55:16;;;;;;;7.40;4.80;;;;;;;23.86;50.58;100614.81;5012516;28;20392;-78
2023/06/11 05:57:41;;;;;;;7.50;4.43;;;;;;;23.93;50.82;100601.03;4996150;28;20472;-78
2023/06/11 06:00:10;;;;;;;9.35;4.40;;;;;;;24.25;50.05;100603.63;5008347;28;20403;-77
2023/06/11 06:02:35;;;;;;;8.50;4.60;;;;;;;24.52;50.02;100598.03;5009992;28;20471;-78
2023/06/11 06:05:01;;;;;;;6.53;4.05;;;;;;;24.49;49.49;100597.75;4997849;28;20567;-78
2023/06/11 06:07:26;;;;;;;11.43;4.40;;;;;;;24.42;49.58;100601.53;4981121;28;20405;-77
2023/06/11 06:09:51;;;;;;;6.77;3.73;;;;;;;24.41;49.69;100599.91;4994238;28;20394;-77
2023/06/11 06:12:17;;;;;;;6.57;3.85;;;;;;;24.51;50.05;100601.84;4990960;28;20697;-79
2023/06/11 06:14:42;;;;;;;8.13;5.03;;;;;;;24.80;49.79;100594.09;4989947;28;20392;-78
2023/06/11 06:17:08;;;;;;;10.60;4.47;;;;;;;24.82;49.23;100593.03;4972291;28;20385;-78
2023/06/11 06:19:33;;;;;;;5.97;3.90;;;;;;;24.73;49.23;100590.81;4990133;28;20386;-77
2023/06/11 06:21:59;;;;;;;6.55;3.67;;;;;;;24.86;49.45;100597.63;4991138;28;20405;-77
2023/06/11 06:24:24;;;;;;;5.67;3.70;;;;;;;25.27;48.96;100600.41;4990620;28;20410;-77
2023/06/11 06:26:56;;;;;;;4.87;3.67;;;;;;;25.43;48.70;100600.44;4989840;28;20886;-80
2023/06/11 06:29:25;;;;;;;6.70;3.83;;;;;;;25.35;48.18;100601.75;4985676;28;21151;-77
2023/06/11 06:31:52;;;;;;;5.95;3.90;;;;;;;25.53;47.70;100600.41;4991029;28;20397;-78
2023/06/11 06:34:17;;;;;;;6.03;3.75;;;;;;;25.64;47.69;100596.59;4989368;28;20405;-78
2023/06/11 06:36:43;;;;;;;4.33;3.40;;;;;;;25.69;47.66;100593.84;4991913;28;20897;-77
2023/06/11 06:39:09;;;;;;;5.33;3.60;;;;;;;26.12;47.18;100588.88;4993579;28;20397;-78
2023/06/11 06:41:35;;;;;;;5.22;3.60;;;;;;;26.13;46.55;100592.44;4970325;28;20388;-78
2023/06/11 06:44:00;;;;;;;7.93;3.90;;;;;;;26.39;46.69;100593.13;4990672;28;20405;-79
2023/06/11 06:46:26;;;;;;;6.43;4.87;;;;;;;26.51;46.64;100592.81;4990627;28;20501;-78
2023/06/11 06:48:51;;;;;;;4.85;3.60;;;;;;;26.60;46.23;100593.84;4990478;28;20480;-78
2023/06/11 06:51:20;;;;;;;7.77;5.37;;;;;;;26.80;46.41;100595.66;4989676;28;20507;-77
2023/06/11 06:53:47;;;;;;;6.43;3.83;;;;;;;26.82;45.99;100596.19;4989153;28;20693;-77
2023/06/11 06:56:13;;;;;;;7.32;4.18;;;;;;;26.78;45.72;100584.25;5005028;28;20953;-77
2023/06/11 06:58:39;;;;;;;7.00;4.30;;;;;;;26.79;45.64;100591.31;4979347;28;20418;-78
2023/06/11 07:01:04;;;;;;;7.03;3.80;;;;;;;26.72;45.05;100590.00;4997714;28;20398;-77
2023/06/11 07:03:32;;;;;;;6.80;3.65;;;;;;;26.55;44.42;100591.16;5006864;28;20729;-80
2023/06/11 07:05:58;;;;;;;7.20;3.67;;;;;;;26.48;43.82;100590.66;5001964;28;20400;-78
2023/06/11 07:08:23;;;;;;;6.18;3.47;;;;;;;27.21;43.02;100600.03;4998920;28;20822;-76
2023/06/11 07:10:50;;;;;;;6.80;3.47;;;;;;;27.13;42.31;100589.72;5001411;28;20395;-76
2023/06/11 07:13:16;;;;;;;5.20;3.22;;;;;;;26.98;42.45;100596.91;4999459;28;20876;-78
2023/06/11 07:15:42;;;;;;;5.37;3.10;;;;;;;27.15;42.46;100593.78;4983237;28;20526;-76
2023/06/11 07:18:08;;;;;;;7.32;4.10;;;;;;;27.38;43.56;100589.53;4999426;28;20394;-76
2023/06/11 07:20:34;;;;;;;6.43;3.72;;;;;;;27.68;43.54;100586.81;5004852;28;20392;-77
2023/06/11 07:23:00;;;;;;;8.40;4.03;;;;;;;27.77;44.05;100585.91;5003213;28;20392;-77
2023/06/11 07:25:30;;;;;;;7.15;3.80;;;;;;;27.95;43.75;100581.66;4996875;28;20408;-77
2023/06/11 07:27:58;;;;;;;7.57;3.97;;;;;;;27.96;43.20;100585.19;4996575;28;20400;-77
2023/06/11 07:30:24;;;;;;;6.35;3.75;;;;;;;27.95;43.45;100580.84;5012276;28;20400;-77
2023/06/11 07:32:50;;;;;;;6.82;4.07;;;;;;;27.97;43.33;100581.38;4979307;28;20779;-77
2023/06/11 07:35:16;;;;;;;5.82;3.63;;;;;;;27.97;43.02;100578.66;5000170;28;20477;-77
2023/06/11 07:37:41;;;;;;;6.70;3.67;;;;;;;28.12;42.74;100577.66;5010610;28;20489;-76
2023/06/11 07:40:07;;;;;;;5.45;3.72;;;;;;;28.30;42.53;100570.59;4997439;28;20473;-77
2023/06/11 07:42:33;;;;;;;6.60;3.65;;;;;;;28.48;42.27;100575.25;5008649;28;20393;-77
2023/06/11 07:44:59;;;;;;;5.07;3.50;;;;;;;28.55;41.81;100569.47;5000356;28;20408;-76
2023/06/11 07:47:24;;;;;;;5.50;3.60;;;;;;;28.51;41.98;100576.59;4984166;28;21004;-76
2023/06/11 07:49:50;;;;;;;7.77;3.60;;;;;;;28.41;41.67;100572.91;5005802;28;20710;-76
2023/06/11 07:52:15;;;;;;;5.85;3.72;;;;;;;28.39;42.15;100568.84;5009996;28;20767;-77
2023/06/11 07:54:42;;;;;;;6.10;3.40;;;;;;;28.51;42.20;100560.25;5006754;28;20392;-77
2023/06/11 07:57:08;;;;;;;7.47;3.80;;;;;;;28.55;41.93;100564.03;5001989;28;20410;-77
2023/06/11 07:59:36;;;;;;;7.38;4.65;;;;;;;28.50;41.89;100564.06;5002452;28;20481;-76
2023/06/11 08:02:02;;;;;;;8.90;4.45;;;;;;;28.52;42.28;100562.69;4998332;28;20391;-77
2023/06/11 08:04:28;;;;;;;5.38;3.40;;;;;;;28.74;42.18;100553.94;5000093;28;20436;-77
2023/06/11 08:06:54;;;;;;;7.28;3.60;;;;;;;28.90;41.66;100562.69;5005755;28;20898;-77
2023/06/11 08:09:19;;;;;;;4.90;3.40;;;;;;;28.86;41.82;100560.84;4993642;28;20390;-77
2023/06/11 08:11:45;;;;;;;4.93;3.40;;;;;;;28.91;41.77;100561.56;5008043;28;20738;-77
2023/06/11 08:14:10;;;;;;;6.73;3.70;;;;;;;29.10;41.46;100558.00;4996213;28;20881;-76
2023/06/11 08:16:36;;;;;;;6.88;3.63;;;;;;;29.13;41.41;100554.66;5011155;28;20821;-75
2023/06/11 08:19:01;;;;;;;10.48;4.13;;;;;;;29.36;41.00;100561.94;5002384;28;20413;-76
2023/06/11 08:21:27;;;;;;;6.63;3.30;;;;;;;29.36;41.23;100563.88;5008849;28;20483;-77
2023/06/11 08:23:52;;;;;;;10.33;4.73;;;;;;;29.43;41.76;100558.81;4987915;28;20409;-77
2023/06/11 08:26:19;;;;;;;5.45;3.53;;;;;;;29.58;40.09;100562.38;4975169;28;20903;-76
2023/06/11 08:28:45;;;;;;;5.57;3.50;;;;;;;29.73;40.05;100559.38;4972109;28;20473;-76
2023/06/11 08:31:10;;;;;;;6.60;3.37;;;;;;;29.79;39.55;100562.84;4973208;28;20401;-76
2023/06/11 08:33:36;;;;;;;8.82;4.05;;;;;;;29.90;39.31;100565.06;4985778;28;20398;-76
2023/06/11 08:36:03;;;;;;;11.48;3.92;;;;;;;29.94;38.85;100559.81;4989394;28;20463;-76
2023/06/11 08:38:28;;;;;;;7.18;3.80;;;;;;;30.00;38.97;100555.03;4994891;28;20493;-76
2023/06/11 08:40:54;;;;;;;6.40;3.88;;;;;;;30.05;38.97;100552.19;4998771;28;20481;-78
2023/06/11 08:43:20;;;;;;;6.00;3.30;;;;;;;30.13;38.63;100553.44;5004631;28;20458;-77
2023/06/11 08:45:45;;;;;;;8.97;3.97;;;;;;;30.18;38.73;100547.81;4999341;28;20424;-76
2023/06/11 08:48:13;;;;;;;6.90;3.65;;;;;;;30.33;38.81;100549.44;4992587;28;20401;-76
2023/06/11 08:50:38;;;;;;;7.65;3.80;;;;;;;30.38;38.51;100552.06;4992076;28;20386;-76
2023/06/11 08:53:06;;;;;;;9.13;5.30;;;;;;;30.41;38.22;100551.47;4991892;28;20885;-75
2023/06/11 08:55:32;;;;;;;4.55;3.35;;;;;;;30.38;37.63;100547.44;4991267;28;20413;-75
2023/06/11 08:57:57;;;;;;;4.50;3.30;;;;;;;30.38;37.39;100541.97;5012574;28;20888;-76
2023/06/11 09:00:23;;;;;;;5.10;3.53;;;;;;;30.44;37.22;100542.66;5014172;28;20872;-77
2023/06/11 09:02:49;;;;;;;4.20;3.40;;;;;;;30.46;36.81;100543.16;5012248;28;20734;-77
2023/06/11 09:05:15;;;;;;;4.50;3.20;;;;;;;30.56;36.61;100547.56;5011498;28;20474;-76
2023/06/11 09:07:51;;;;;;;5.93;3.30;;;;;;;30.50;36.00;100544.13;5011664;28;20858;-77
2023/06/11 09:10:18;;;;;;;5.13;3.15;;;;;;;30.54;35.65;100542.44;5011703;28;20518;-76
2023/06/11 09:12:43;;;;;;;5.90;2.92;;;;;;;30.48;35.13;100535.44;5011767;28;20384;-76
2023/06/11 09:15:11;;;;;;;5.45;3.20;;;;;;;30.44;35.24;100537.97;5011481;28;20388;-77
2023/06/11 09:17:38;;;;;;;6.43;3.53;;;;;;;30.42;35.96;100531.22;5011505;28;20900;-76
2023/06/11 09:20:09;;;;;;;5.55;3.28;;;;;;;30.40;35.86;100533.44;5011535;28;20396;-77
2023/06/11 09:22:37;;;;;;;6.88;3.50;;;;;;;30.46;35.94;100543.16;5011461;28;20379;-77
2023/06/11 09:25:09;;;;;;;5.63;3.23;;;;;;;30.39;35.68;100532.63;5010874;28;20435;-76
2023/06/11 09:27:35;;;;;;;6.10;3.20;;;;;;;30.41;35.42;100535.84;5011451;28;20395;-77
2023/06/11 09:30:18;;;;;;;4.38;3.08;;;;;;;30.46;35.15;100537.69;5011404;28;20391;-77
2023/06/11 09:32:45;;;;;;;5.18;3.20;;;;;;;30.35;35.70;100531.63;5011326;28;20848;-77
2023/06/11 09:35:13;;;;;;;5.85;3.20;;;;;;;30.39;35.59;100523.63;5011674;28;20434;-76
2023/06/11 09:37:46;;;;;;;4.88;3.10;;;;;;;30.44;35.10;100529.78;5011742;28;20380;-76
2023/06/11 09:40:15;;;;;;;5.85;3.30;;;;;;;30.52;35.72;100527.44;5011218;28;20453;-76
2023/06/11 09:42:46;;;;;;;6.07;3.10;;;;;;;30.51;35.19;100523.88;5011443;28;20466;-77
2023/06/11 09:45:23;;;;;;;6.03;3.03;;;;;;;30.75;35.13;100526.31;5011242;28;20427;-76
2023/06/11 09:47:50;;;;;;;4.95;3.08;;;;;;;30.71;35.08;100521.78;5011129;28;20384;-76
2023/06/11 09:50:17;;;;;;;4.67;3.03;;;;;;;30.67;34.47;100522.41;5011529;28;20387;-75
2023/06/11 09:52:44;;;;;;;7.78;3.08;;;;;;;30.78;35.48;100524.91;5011254;28;20391;-76
2023/06/11 09:55:10;;;;;;;4.50;2.90;;;;;;;30.73;34.98;100525.03;5011498;28;20376;-75
2023/06/11 09:57:38;;;;;;;5.63;3.37;;;;;;;30.82;35.16;100532.16;5011558;28;20764;-78
2023/06/11 10:00:09;;;;;;;5.45;3.03;;;;;;;30.82;34.48;100529.44;5011774;28;20383;-76
2023/06/11 10:02:42;;;;;;;5.07;3.30;;;;;;;30.76;34.91;100527.16;5011494;28;20459;-77
2023/06/11 10:05:09;;;;;;;5.93;3.00;;;;;;;30.73;35.50;100516.81;5011171;28;20414;-77
2023/06/11 10:07:49;;;;;;;5.60;3.28;;;;;;;30.64;35.67;100522.22;5010344;28;20463;-76
2023/06/11 10:10:19;;;;;;;5.18;3.00;;;;;;;30.74;35.67;100519.25;5011025;28;20461;-77
2023/06/11 10:12:52;;;;;;;5.38;2.70;;;;;;;30.59;35.19;100514.94;5011066;28;20384;-77
2023/06/11 10:15:20;;;;;;;4.72;2.97;;;;;;;30.46;35.21;100513.06;5011337;28;20384;-76
2023/06/11 10:17:51;;;;;;;4.47;3.03;;;;;;;30.35;34.75;100504.28;5010796;28;20376;-75
2023/06/11 10:20:35;;;;;;;4.65;2.83;;;;;;;30.27;34.26;100499.50;5011087;28;20388;-77
2023/06/11 10:23:11;;;;;;;6.47;2.80;;;;;;;30.39;34.13;100502.53;5010821;28;20465;-76
2023/06/11 10:25:39;;;;;;;4.17;2.67;;;;;;;30.21;33.44;100503.47;5011348;28;20427;-77
2023/06/11 10:28:05;;;;;;;4.43;2.72;;;;;;;30.31;33.08;100500.53;5011175;28;20379;-77
2023/06/11 10:30:31;;;;;;;4.13;2.20;;;;;;;30.40;31.84;100495.97;5010716;28;20388;-78
2023/06/11 10:32:58;;;;;;;3.47;2.40;;;;;;;30.50;31.39;100489.44;5010983;28;20387;-77
2023/06/11 10:35:32;;;;;;;4.32;2.40;;;;;;;30.54;31.20;100489.63;5011628;28;20412;-76
2023/06/11 10:38:06;;;;;;;4.53;2.75;;;;;;;30.68;31.91;100476.69;5014558;28;20398;-77
2023/06/11 10:40:36;;;;;;;5.07;2.70;;;;;;;30.89;31.80;100479.75;5013842;28;20430;-77
2023/06/11 10:43:11;;;;;;;4.85;2.38;;;;;;;30.92;31.86;100478.31;5016317;28;20380;-77
2023/06/11 10:45:38;;;;;;;3.40;2.45;;;;;;;30.72;31.59;100474.97;5014570;28;20436;-77
2023/06/11 10:48:05;;;;;;;5.40;2.73;;;;;;;30.83;32.31;100470.06;4997135;28;20384;-76
2023/06/11 10:50:31;;;;;;;5.10;2.87;;;;;;;31.00;32.25;100474.84;5014252;28;20391;-76
2023/06/11 10:53:03;;;;;;;4.80;2.58;;;;;;;30.98;32.25;100469.69;5013765;28;20883;-76
2023/06/11 10:55:30;;;;;;;6.15;3.25;;;;;;;31.06;31.96;100468.09;5013936;28;20376;-76
2023/06/11 10:57:57;;;;;;;4.13;2.63;;;;;;;31.14;31.88;100461.88;4994438;28;20394;-76
2023/06/11 11:00:23;;;;;;;4.95;2.88;;;;;;;31.22;31.39;100454.81;4994882;28;20443;-76
2023/06/11 11:02:50;;;;;;;4.00;2.80;;;;;;;31.21;31.78;100451.28;4995638;28;20391;-76
2023/06/11 11:05:16;;;;;;;4.78;2.40;;;;;;;31.12;31.32;100449.63;4977058;28;20480;-76
2023/06/11 11:07:44;;;;;;;3.47;2.60;;;;;;;31.26;32.31;100439.38;4994020;28;20758;-76
2023/06/11 11:10:12;;;;;;;6.63;3.08;;;;;;;31.28;31.06;100444.53;4994415;28;20460;-76
2023/06/11 11:12:42;;;;;;;5.38;2.72;;;;;;;31.29;31.34;100435.19;4994222;28;20378;-76
2023/06/11 11:15:10;;;;;;;4.53;2.70;;;;;;;31.32;31.21;100442.78;4994238;28;20855;-76
2023/06/11 11:17:35;;;;;;;4.57;2.73;;;;;;;31.30;31.92;100432.13;4994013;28;20751;-75
2023/06/11 11:20:05;;;;;;;3.00;2.30;;;;;;;31.39;31.19;100443.13;4977241;28;20882;-76
2023/06/11 11:22:31;;;;;;;4.25;2.47;;;;;;;31.43;31.33;100431.22;4994205;28;20386;-75
2023/06/11 11:25:04;;;;;;;3.70;2.53;;;;;;;31.47;31.41;100436.84;4994286;28;20878;-76